createdAt,value
2022-12-19T00:01:34.795Z,-0.13
2022-12-19T00:04:07.063Z,-0.12
2022-12-19T00:06:35.619Z,-0.14
2022-12-19T00:09:02.092Z,-0.11
2022-12-19T00:11:29.388Z,-0.09
2022-12-19T00:13:56.159Z,-0.09
2022-12-19T00:16:24.846Z,-0.10
2022-12-19T00:18:55.212Z,-0.08
2022-12-19T00:21:23.979Z,-0.07
2022-12-19T00:23:51.100Z,-0.05
2022-12-19T00:26:18.945Z,0.01
2022-12-19T00:28:48.587Z,0.01
2022-12-19T00:31:17.014Z,0.00
2022-12-19T00:33:44.208Z,0.03
2022-12-19T00:36:14.939Z,0.08
2022-12-19T00:38:43.947Z,0.12
2022-12-19T00:41:19.524Z,0.19
2022-12-19T00:43:49.351Z,0.23
2022-12-19T00:46:16.059Z,0.24
2022-12-19T00:48:43.131Z,0.23
2022-12-19T00:51:16.936Z,0.29
2022-12-19T00:53:44.555Z,0.39
2022-12-19T00:56:19.255Z,0.47
2022-12-19T00:58:47.389Z,0.50
2022-12-19T01:01:17.080Z,0.53
2022-12-19T01:04:04.384Z,0.52
2022-12-19T01:06:30.090Z,0.52
2022-12-19T01:08:56.831Z,0.52
2022-12-19T01:11:43.688Z,0.54
2022-12-19T01:14:14.946Z,0.53
2022-12-19T01:16:44.244Z,0.54
2022-12-19T01:19:10.677Z,0.57
2022-12-19T01:21:37.597Z,0.56
2022-12-19T01:24:05.189Z,0.54
2022-12-19T01:26:31.752Z,0.50
2022-12-19T01:28:58.251Z,0.49
2022-12-19T01:31:24.670Z,0.49
2022-12-19T01:33:51.082Z,0.51
2022-12-19T01:36:18.130Z,0.55
2022-12-19T01:38:44.546Z,0.56
2022-12-19T01:41:11.065Z,0.55
2022-12-19T01:43:56.072Z,0.59
2022-12-19T01:46:26.019Z,0.61
2022-12-19T01:48:54.847Z,0.62
2022-12-19T01:51:26.830Z,0.65
2022-12-19T01:53:58.824Z,0.66
2022-12-19T01:56:31.807Z,0.68
2022-12-19T01:59:05.751Z,0.73
2022-12-19T02:01:32.906Z,0.75
2022-12-19T02:04:01.726Z,0.82
2022-12-19T02:06:30.211Z,0.85
2022-12-19T02:08:56.765Z,0.84
2022-12-19T02:11:23.124Z,0.89
2022-12-19T02:13:49.684Z,0.87
2022-12-19T02:16:49.170Z,0.90
2022-12-19T02:19:48.282Z,0.96
2022-12-19T02:22:44.870Z,0.96
2022-12-19T02:25:24.682Z,0.98
2022-12-19T02:28:06.359Z,1.03
2022-12-19T02:31:16.403Z,1.04
2022-12-19T02:33:56.749Z,1.09
2022-12-19T02:36:33.966Z,1.12
2022-12-19T02:39:41.145Z,1.19
2022-12-19T02:42:12.185Z,1.22
2022-12-19T02:44:52.760Z,1.16
2022-12-19T02:47:21.484Z,1.16
2022-12-19T02:49:48.550Z,1.23
2022-12-19T02:52:20.624Z,1.26
2022-12-19T02:54:53.470Z,1.27
2022-12-19T02:57:28.321Z,1.31
2022-12-19T03:00:17.639Z,1.32
2022-12-19T03:03:14.536Z,1.34
2022-12-19T03:06:11.973Z,1.36
2022-12-19T03:08:52.224Z,1.38
2022-12-19T03:11:22.180Z,1.39
2022-12-19T03:13:55.591Z,1.43
2022-12-19T03:16:22.920Z,1.46
2022-12-19T03:18:49.699Z,1.50
2022-12-19T03:21:34.516Z,1.55
2022-12-19T03:24:02.246Z,1.59
2022-12-19T03:26:32.792Z,1.62
2022-12-19T03:29:09.004Z,1.70
2022-12-19T03:31:37.845Z,1.68
2022-12-19T03:34:13.605Z,1.68
2022-12-19T03:36:45.863Z,1.73
2022-12-19T03:39:14.530Z,1.79
2022-12-19T03:42:02.300Z,1.84
2022-12-19T03:44:33.412Z,1.87
2022-12-19T03:47:40.698Z,1.93
2022-12-19T03:50:08.463Z,1.90
2022-12-19T03:53:04.228Z,1.89
2022-12-19T03:55:43.126Z,1.93
2022-12-19T03:58:12.738Z,1.95
2022-12-19T04:00:43.690Z,1.97
2022-12-19T04:03:11.633Z,2.00
2022-12-19T04:05:40.162Z,2.08
2022-12-19T04:08:09.019Z,2.11
2022-12-19T04:10:44.370Z,2.09
2022-12-19T04:13:17.871Z,2.11
2022-12-19T04:15:47.116Z,2.12
2022-12-19T04:18:15.833Z,2.16
2022-12-19T04:20:49.336Z,2.16
2022-12-19T04:23:27.133Z,2.21
2022-12-19T04:26:00.387Z,2.24
2022-12-19T04:28:43.570Z,2.26
2022-12-19T04:31:14.636Z,2.30
2022-12-19T04:33:41.573Z,2.33
2022-12-19T04:36:08.532Z,2.35
2022-12-19T04:38:34.968Z,2.35
2022-12-19T04:41:01.500Z,2.41
2022-12-19T04:43:27.877Z,2.44
2022-12-19T04:45:57.503Z,2.46
2022-12-19T04:48:24.756Z,2.50
2022-12-19T04:50:51.184Z,2.49
2022-12-19T04:53:17.627Z,2.51
2022-12-19T04:55:44.191Z,2.54
2022-12-19T04:58:11.343Z,2.54
2022-12-19T05:00:37.692Z,2.62
2022-12-19T05:03:04.498Z,2.62
2022-12-19T05:05:30.979Z,2.64
2022-12-19T05:07:57.524Z,2.71
2022-12-19T05:10:24.026Z,2.72
2022-12-19T05:12:50.400Z,2.71
2022-12-19T05:15:17.168Z,2.71
2022-12-19T05:17:43.547Z,2.77
2022-12-19T05:20:10.792Z,2.73
2022-12-19T05:22:37.157Z,2.78
2022-12-19T05:25:03.733Z,2.84
2022-12-19T05:27:30.969Z,2.85
2022-12-19T05:29:57.375Z,2.86
2022-12-19T05:32:23.811Z,2.89
2022-12-19T05:34:50.232Z,2.88
2022-12-19T05:37:16.663Z,2.91
2022-12-19T05:39:43.054Z,2.92
2022-12-19T05:42:12.293Z,2.93
2022-12-19T05:44:39.268Z,2.96
2022-12-19T05:47:05.693Z,2.98
2022-12-19T05:49:32.103Z,3.02
2022-12-19T05:51:58.521Z,3.09
2022-12-19T05:54:25.841Z,3.11
2022-12-19T05:56:52.267Z,3.14
2022-12-19T05:59:18.709Z,3.14
2022-12-19T06:01:45.219Z,3.15
2022-12-19T06:04:11.684Z,3.18
2022-12-19T06:06:38.094Z,3.26
2022-12-19T06:09:04.639Z,3.30
2022-12-19T06:11:31.060Z,3.30
2022-12-19T06:13:57.431Z,3.37
2022-12-19T06:16:24.353Z,3.44
2022-12-19T06:18:50.963Z,3.48
2022-12-19T06:21:19.668Z,3.53
2022-12-19T06:23:46.894Z,3.58
2022-12-19T06:26:19.053Z,3.65
2022-12-19T06:28:46.343Z,3.68
2022-12-19T06:31:13.590Z,3.78
2022-12-19T06:33:40.585Z,3.85
2022-12-19T06:36:11.401Z,3.92
2022-12-19T06:38:37.880Z,4.12
2022-12-19T06:41:23.475Z,4.24
2022-12-19T06:43:53.296Z,4.45
2022-12-19T06:46:20.318Z,4.65
2022-12-19T06:48:46.756Z,4.87
2022-12-19T06:51:13.208Z,4.95
2022-12-19T06:53:40.338Z,5.01
2022-12-19T06:56:07.244Z,5.13
2022-12-19T06:58:34.310Z,5.23
2022-12-19T07:01:01.529Z,5.33
2022-12-19T07:03:34.712Z,5.36
2022-12-19T07:06:01.206Z,5.48
2022-12-19T07:08:27.687Z,5.54
2022-12-19T07:10:54.214Z,5.68
2022-12-19T07:13:20.592Z,5.74
2022-12-19T07:15:47.177Z,5.75
2022-12-19T07:18:14.257Z,5.85
2022-12-19T07:20:45.160Z,5.84
2022-12-19T07:23:17.062Z,5.88
2022-12-19T07:25:43.584Z,5.95
2022-12-19T07:28:10.060Z,5.99
2022-12-19T07:30:36.555Z,6.02
2022-12-19T07:33:03.022Z,5.99
2022-12-19T07:35:29.514Z,5.99
2022-12-19T07:38:02.048Z,6.08
2022-12-19T07:40:31.954Z,6.11
2022-12-19T07:43:06.319Z,6.19
2022-12-19T07:45:33.579Z,6.23
2022-12-19T07:48:01.345Z,6.15
2022-12-19T07:50:28.542Z,6.17
2022-12-19T07:52:55.153Z,6.18
2022-12-19T07:55:21.610Z,6.26
2022-12-19T07:57:48.033Z,6.37
2022-12-19T08:00:14.751Z,6.46
2022-12-19T08:02:41.332Z,6.43
2022-12-19T08:05:08.755Z,6.40
2022-12-19T08:07:35.174Z,6.42
2022-12-19T08:10:01.616Z,6.38
2022-12-19T08:12:28.027Z,6.39
2022-12-19T08:14:57.360Z,6.38
2022-12-19T08:17:24.098Z,6.41
2022-12-19T08:19:50.842Z,6.40
2022-12-19T08:22:17.293Z,6.49
2022-12-19T08:24:43.707Z,6.50
2022-12-19T08:27:10.226Z,6.57
2022-12-19T08:29:36.619Z,6.54
2022-12-19T08:32:03.094Z,6.65
2022-12-19T08:34:29.643Z,6.72
2022-12-19T08:36:56.059Z,6.71
2022-12-19T08:39:22.423Z,6.70
2022-12-19T08:41:48.980Z,6.71
2022-12-19T08:44:16.313Z,6.79
2022-12-19T08:46:49.411Z,6.78
2022-12-19T08:49:16.611Z,6.90
2022-12-19T08:51:43.063Z,6.86
2022-12-19T08:54:10.912Z,6.85
2022-12-19T08:56:41.584Z,6.91
2022-12-19T08:59:13.303Z,6.93
2022-12-19T09:01:41.530Z,6.97
2022-12-19T09:04:40.271Z,7.04
2022-12-19T09:06:54.320Z,7.01
2022-12-19T09:09:20.764Z,7.04
2022-12-19T09:11:47.674Z,7.08
2022-12-19T09:14:14.773Z,7.18
2022-12-19T09:16:46.913Z,7.18
2022-12-19T09:19:15.577Z,7.12
2022-12-19T09:21:42.495Z,7.18
2022-12-19T09:24:09.306Z,7.18
2022-12-19T09:26:37.265Z,7.22
2022-12-19T09:29:06.782Z,7.29
2022-12-19T09:31:46.680Z,7.24
2022-12-19T09:34:13.081Z,7.31
2022-12-19T09:36:39.489Z,7.35
2022-12-19T09:39:05.960Z,7.38
2022-12-19T09:41:44.591Z,7.41
2022-12-19T09:44:29.519Z,7.39
2022-12-19T09:47:02.580Z,7.42
2022-12-19T09:49:41.758Z,7.40
2022-12-19T09:52:26.978Z,7.43
2022-12-19T09:55:16.812Z,7.45
2022-12-19T09:58:04.725Z,7.47
2022-12-19T10:00:38.289Z,7.42
2022-12-19T10:03:20.806Z,7.42
2022-12-19T10:06:55.815Z,7.40
2022-12-19T10:09:40.985Z,7.37
2022-12-19T10:12:44.837Z,7.50
2022-12-19T10:15:21.114Z,7.51
2022-12-19T10:18:11.566Z,7.58
2022-12-19T10:20:45.611Z,7.59
2022-12-19T10:23:51.401Z,7.64
2022-12-19T10:26:30.336Z,7.58
2022-12-19T10:29:34.574Z,7.66
2022-12-19T10:32:19.372Z,7.73
2022-12-19T10:34:48.066Z,7.77
2022-12-19T10:37:37.593Z,7.74
2022-12-19T10:40:27.849Z,7.84
2022-12-19T10:42:58.139Z,7.89
2022-12-19T10:45:33.775Z,7.90
2022-12-19T10:48:00.683Z,7.87
2022-12-19T10:50:32.023Z,7.81
2022-12-19T10:53:04.474Z,7.75
2022-12-19T10:55:43.998Z,7.73
2022-12-19T10:58:34.527Z,7.72
2022-12-19T11:01:14.176Z,7.80
2022-12-19T11:03:43.835Z,7.86
2022-12-19T11:06:34.813Z,7.91
2022-12-19T11:09:18.854Z,7.96
2022-12-19T11:12:47.648Z,8.01
2022-12-19T11:18:44.506Z,7.96
2022-12-19T11:23:20.729Z,7.94
2022-12-19T11:29:40.836Z,7.94
2022-12-19T11:29:42.811Z,7.98
2022-12-19T11:30:45.890Z,8.00
2022-12-19T11:32:40.977Z,8.08
2022-12-19T11:35:36.484Z,8.13
2022-12-19T11:38:06.093Z,8.14
2022-12-19T11:40:44.696Z,8.12
2022-12-19T11:43:44.883Z,8.14
2022-12-19T11:46:29.410Z,8.13
2022-12-19T11:49:04.100Z,8.10
2022-12-19T11:51:52.990Z,8.05
2022-12-19T11:54:30.405Z,8.01
2022-12-19T11:56:57.892Z,8.08
2022-12-19T11:59:37.689Z,8.09
2022-12-19T12:02:16.356Z,8.07
2022-12-19T12:04:54.787Z,8.01
2022-12-19T12:07:49.721Z,8.00
2022-12-19T12:14:53.218Z,8.03
2022-12-19T12:20:34.851Z,8.04
2022-12-19T12:29:29.167Z,8.02
2022-12-19T12:31:07.146Z,8.04
2022-12-19T12:31:12.647Z,8.03
2022-12-19T12:31:16.504Z,8.02
2022-12-19T12:31:50.994Z,8.04
2022-12-19T12:35:33.275Z,8.16
2022-12-19T12:35:38.052Z,8.08
2022-12-19T12:38:21.056Z,8.20
2022-12-19T12:40:42.543Z,8.40
2022-12-19T12:43:46.085Z,8.41
2022-12-19T12:46:19.460Z,8.45
2022-12-19T12:48:53.508Z,8.48
2022-12-19T12:51:21.532Z,8.48
2022-12-19T12:53:49.324Z,8.43
2022-12-19T12:56:18.371Z,8.46
2022-12-19T12:59:05.651Z,8.43
2022-12-19T13:01:40.333Z,8.42
2022-12-19T13:04:13.060Z,8.39
2022-12-19T13:06:40.803Z,8.40
2022-12-19T13:09:13.226Z,8.35
2022-12-19T13:12:13.883Z,8.39
2022-12-19T13:14:44.616Z,8.43
2022-12-19T13:17:17.630Z,8.42
2022-12-19T13:20:17.771Z,8.40
2022-12-19T13:23:01.426Z,8.41
2022-12-19T13:25:31.335Z,8.41
2022-12-19T13:28:14.117Z,8.42
2022-12-19T13:31:16.594Z,8.42
2022-12-19T13:34:16.064Z,8.44
2022-12-19T13:39:51.496Z,8.48
2022-12-19T13:40:10.965Z,8.54
2022-12-19T13:43:10.660Z,8.58
2022-12-19T13:45:41.313Z,8.58
2022-12-19T13:48:16.459Z,8.50
2022-12-19T13:50:47.634Z,8.41
2022-12-19T13:53:22.604Z,8.32
2022-12-19T13:55:49.993Z,8.24
2022-12-19T13:58:29.858Z,8.23
2022-12-19T14:01:01.203Z,8.17
2022-12-19T14:03:44.356Z,8.12
2022-12-19T14:06:20.519Z,8.08
2022-12-19T14:09:25.197Z,8.09
2022-12-19T14:13:41.450Z,8.07
2022-12-19T14:14:47.975Z,8.02
2022-12-19T14:17:17.946Z,7.93
2022-12-19T14:19:53.357Z,7.89
2022-12-19T14:22:38.723Z,7.81
2022-12-19T14:27:57.392Z,7.78
2022-12-19T14:28:18.040Z,7.80
2022-12-19T14:31:02.382Z,7.82
2022-12-19T14:36:34.502Z,7.89
2022-12-19T14:39:27.033Z,8.02
2022-12-19T14:42:09.480Z,8.01
2022-12-19T14:52:08.377Z,7.84
2022-12-19T14:53:51.781Z,7.93
2022-12-19T14:54:38.019Z,7.80
2022-12-19T14:54:44.365Z,7.85
2022-12-19T14:56:31.052Z,7.83
2022-12-19T14:58:58.141Z,7.78
2022-12-19T15:01:27.802Z,7.76
2022-12-19T15:04:51.295Z,7.83
2022-12-19T15:07:08.849Z,7.88
2022-12-19T15:11:00.652Z,7.96
2022-12-19T15:14:54.203Z,7.85
2022-12-19T15:16:00.515Z,7.82
2022-12-19T15:18:33.683Z,7.73
2022-12-19T15:21:02.845Z,7.66
2022-12-19T15:23:30.256Z,7.62
2022-12-19T15:26:06.181Z,7.62
2022-12-19T15:28:43.186Z,7.61
2022-12-19T15:31:41.364Z,7.58
2022-12-19T15:34:46.440Z,7.62
2022-12-19T15:37:13.869Z,7.64
2022-12-19T15:39:41.603Z,7.60
2022-12-19T15:42:21.402Z,7.57
2022-12-19T15:44:49.238Z,7.51
2022-12-19T15:47:19.548Z,7.47
2022-12-19T15:49:46.531Z,7.48
2022-12-19T15:52:17.522Z,7.47
2022-12-19T15:54:49.686Z,7.47
2022-12-19T15:57:38.437Z,7.47
2022-12-19T16:00:08.398Z,7.45
2022-12-19T16:03:13.416Z,7.46
2022-12-19T16:05:23.551Z,7.57
2022-12-19T16:07:50.370Z,7.67
2022-12-19T16:10:17.771Z,7.68
2022-12-19T16:12:50.558Z,7.69
2022-12-19T16:15:26.019Z,7.82
2022-12-19T16:17:53.218Z,7.83
2022-12-19T16:20:22.847Z,7.69
2022-12-19T16:22:49.793Z,7.59
2022-12-19T16:25:16.885Z,7.44
2022-12-19T16:27:44.007Z,7.40
2022-12-19T16:30:20.966Z,7.41
2022-12-19T16:32:48.050Z,7.39
2022-12-19T16:35:34.549Z,7.39
2022-12-19T16:38:07.069Z,7.30
2022-12-19T16:40:33.530Z,7.19
2022-12-19T16:43:13.924Z,7.08
2022-12-19T16:45:40.455Z,7.02
2022-12-19T16:48:18.274Z,6.96
2022-12-19T16:50:44.791Z,6.93
2022-12-19T16:53:11.244Z,6.94
2022-12-19T16:55:37.715Z,6.93
2022-12-19T16:58:04.241Z,6.99
2022-12-19T17:00:30.943Z,7.03
2022-12-19T17:03:18.067Z,7.08
2022-12-19T17:05:44.547Z,6.95
2022-12-19T17:08:14.063Z,6.84
2022-12-19T17:10:43.656Z,6.75
2022-12-19T17:13:12.895Z,6.71
2022-12-19T17:15:39.535Z,6.64
2022-12-19T17:18:24.313Z,6.63
2022-12-19T17:20:50.734Z,6.57
2022-12-19T17:23:20.007Z,6.61
2022-12-19T17:25:46.752Z,6.65
2022-12-19T17:28:13.994Z,6.65
2022-12-19T17:30:42.314Z,6.69
2022-12-19T17:33:15.384Z,6.66
2022-12-19T17:35:42.737Z,6.59
2022-12-19T17:38:12.906Z,6.50
2022-12-19T17:40:40.209Z,6.45
2022-12-19T17:43:06.802Z,6.39
2022-12-19T17:45:34.417Z,6.33
2022-12-19T17:48:03.422Z,6.33
2022-12-19T17:50:40.641Z,6.28
2022-12-19T17:53:13.691Z,6.30
2022-12-19T17:55:40.411Z,6.35
2022-12-19T17:58:06.962Z,6.41
2022-12-19T18:00:33.887Z,6.52
2022-12-19T18:03:05.523Z,6.55
2022-12-19T18:05:35.954Z,6.59
2022-12-19T18:08:03.662Z,6.64
2022-12-19T18:10:32.030Z,6.67
2022-12-19T18:12:58.541Z,6.62
2022-12-19T18:15:25.332Z,6.54
2022-12-19T18:17:53.431Z,6.56
2022-12-19T18:20:31.542Z,6.47
2022-12-19T18:22:59.902Z,6.52
2022-12-19T18:25:31.792Z,6.56
2022-12-19T18:27:58.554Z,6.64
2022-12-19T18:30:25.736Z,6.73
2022-12-19T18:33:01.124Z,6.71
2022-12-19T18:35:47.818Z,6.70
2022-12-19T18:38:20.233Z,6.74
2022-12-19T18:40:47.858Z,6.76
2022-12-19T18:43:15.946Z,6.75
2022-12-19T18:45:44.694Z,6.72
2022-12-19T18:48:20.501Z,6.76
2022-12-19T18:50:46.924Z,6.79
2022-12-19T18:53:17.523Z,6.74
2022-12-19T18:55:44.167Z,6.73
2022-12-19T18:58:10.536Z,6.77
2022-12-19T19:00:38.512Z,6.74
2022-12-19T19:03:10.533Z,6.71
2022-12-19T19:05:39.762Z,6.65
2022-12-19T19:08:15.587Z,6.62
2022-12-19T19:10:42.119Z,6.60
2022-12-19T19:13:10.516Z,6.57
2022-12-19T19:16:05.407Z,6.55
2022-12-19T19:18:36.144Z,6.56
2022-12-19T19:21:04.438Z,6.63
2022-12-19T19:23:36.164Z,6.76
2022-12-19T19:26:03.131Z,6.83
2022-12-19T19:28:30.080Z,6.91
2022-12-19T19:30:58.452Z,7.16
2022-12-19T19:33:37.696Z,7.51
2022-12-19T19:36:12.807Z,7.64
2022-12-19T19:38:43.169Z,7.75
2022-12-19T19:41:09.705Z,7.85
2022-12-19T19:43:36.445Z,7.96
2022-12-19T19:46:03.072Z,8.04
2022-12-19T19:48:30.081Z,8.05
2022-12-19T19:50:56.951Z,8.22
2022-12-19T19:53:23.533Z,8.25
2022-12-19T19:56:00.830Z,8.34
2022-12-19T19:58:28.356Z,8.32
2022-12-19T20:00:54.964Z,8.23
2022-12-19T20:03:23.457Z,8.18
2022-12-19T20:05:50.472Z,8.16
2022-12-19T20:08:17.143Z,8.15
2022-12-19T20:10:43.623Z,8.24
2022-12-19T20:13:11.129Z,8.31
2022-12-19T20:15:39.160Z,8.37
2022-12-19T20:18:08.521Z,8.44
2022-12-19T20:20:35.016Z,8.49
2022-12-19T20:23:02.426Z,8.46
2022-12-19T20:25:28.915Z,8.35
2022-12-19T20:27:55.319Z,8.37
2022-12-19T20:30:21.688Z,8.45
2022-12-19T20:32:48.073Z,8.66
2022-12-19T20:35:15.591Z,8.77
2022-12-19T20:37:42.421Z,8.97
2022-12-19T20:40:09.703Z,9.01
2022-12-19T20:42:36.111Z,9.00
2022-12-19T20:45:03.004Z,8.99
2022-12-19T20:47:30.411Z,8.98
2022-12-19T20:49:56.822Z,8.97
2022-12-19T20:52:23.281Z,9.11
2022-12-19T20:54:50.366Z,9.12
2022-12-19T20:57:16.800Z,9.16
2022-12-19T20:59:43.188Z,9.10
2022-12-19T21:02:11.361Z,9.07
2022-12-19T21:04:38.039Z,9.07
2022-12-19T21:07:04.628Z,9.02
2022-12-19T21:09:31.324Z,9.07
2022-12-19T21:11:57.745Z,9.11
2022-12-19T21:14:24.200Z,9.08
2022-12-19T21:16:51.027Z,9.11
2022-12-19T21:19:17.487Z,9.13
2022-12-19T21:21:44.618Z,9.20
2022-12-19T21:24:10.996Z,9.19
2022-12-19T21:26:37.484Z,9.21
2022-12-19T21:29:04.962Z,9.15
2022-12-19T21:31:31.854Z,9.19
2022-12-19T21:34:01.340Z,9.23
2022-12-19T21:36:29.139Z,9.31
2022-12-19T21:38:58.157Z,9.24
2022-12-19T21:41:24.689Z,9.27
2022-12-19T21:43:55.711Z,9.20
2022-12-19T21:46:27.352Z,9.30
2022-12-19T21:48:56.274Z,9.43
2022-12-19T21:51:27.016Z,9.34
2022-12-19T21:53:55.487Z,9.22
2022-12-19T21:56:28.201Z,9.09
2022-12-19T21:59:00.795Z,8.98
2022-12-19T22:01:28.061Z,8.95
2022-12-19T22:03:59.631Z,8.88
2022-12-19T22:06:29.661Z,8.85
2022-12-19T22:08:56.512Z,8.86
2022-12-19T22:11:23.593Z,8.90
2022-12-19T22:13:50.497Z,8.98
2022-12-19T22:16:17.378Z,9.06
2022-12-19T22:18:44.005Z,9.04
2022-12-19T22:21:15.166Z,8.93
2022-12-19T22:23:41.840Z,8.82
2022-12-19T22:26:14.549Z,8.78
2022-12-19T22:28:44.629Z,8.72
2022-12-19T22:31:20.902Z,8.77
2022-12-19T22:33:49.063Z,8.77
2022-12-19T22:36:19.692Z,8.76
2022-12-19T22:38:49.795Z,8.74
2022-12-19T22:41:18.024Z,8.66
2022-12-19T22:43:45.394Z,8.65
2022-12-19T22:46:17.724Z,8.61
2022-12-19T22:48:46.172Z,8.69
2022-12-19T22:51:13.536Z,8.75
2022-12-19T22:53:39.974Z,8.86
2022-12-19T22:56:15.184Z,8.83
2022-12-19T22:58:44.056Z,8.75
2022-12-19T23:01:25.305Z,8.72
2022-12-19T23:03:53.771Z,8.81
2022-12-19T23:06:21.426Z,8.93
2022-12-19T23:08:48.121Z,9.03
2022-12-19T23:11:20.240Z,9.21
2022-12-19T23:13:48.070Z,9.30
2022-12-19T23:16:15.497Z,9.31
2022-12-19T23:18:42.036Z,9.31
2022-12-19T23:21:12.609Z,9.40
2022-12-19T23:23:41.986Z,9.44
2022-12-19T23:26:15.514Z,9.44
2022-12-19T23:28:44.595Z,9.45
2022-12-19T23:31:14.757Z,9.47
2022-12-19T23:33:41.281Z,9.50
2022-12-19T23:36:08.112Z,9.61
2022-12-19T23:38:34.617Z,9.61
2022-12-19T23:41:05.754Z,9.63
2022-12-19T23:43:33.803Z,9.79
2022-12-19T23:46:04.508Z,9.78
2022-12-19T23:48:30.952Z,9.81
2022-12-19T23:51:06.456Z,9.77
2022-12-19T23:53:33.297Z,9.74
2022-12-19T23:56:01.223Z,9.72
2022-12-19T23:58:27.640Z,9.63
